sensor_id;sensor_type;location;lat;lon;timestamp;temperature;humidity
33717;DHT22;20046;50.746;7.072;2024-03-02T00:01:05;8.10;99.90
33717;DHT22;20046;50.746;7.072;2024-03-02T00:03:31;8.10;99.90
33717;DHT22;20046;50.746;7.072;2024-03-02T00:05:57;8.10;99.90
33717;DHT22;20046;50.746;7.072;2024-03-02T00:08:24;8.20;99.90
33717;DHT22;20046;50.746;7.072;2024-03-02T00:11:00;8.20;99.90
33717;DHT22;20046;50.746;7.072;2024-03-02T00:13:29;8.30;99.90
33717;DHT22;20046;50.746;7.072;2024-03-02T00:15:56;8.30;99.90
33717;DHT22;20046;50.746;7.072;2024-03-02T00:18:32;8.30;99.90
33717;DHT22;20046;50.746;7.072;2024-03-02T00:20:59;8.30;99.90
33717;DHT22;20046;50.746;7.072;2024-03-02T00:23:35;8.40;99.90
33717;DHT22;20046;50.746;7.072;2024-03-02T00:26:01;8.40;99.90
33717;DHT22;20046;50.746;7.072;2024-03-02T00:28:27;8.40;99.90
33717;DHT22;20046;50.746;7.072;2024-03-02T00:31:07;8.40;99.90
33717;DHT22;20046;50.746;7.072;2024-03-02T00:33:41;8.40;99.90
33717;DHT22;20046;50.746;7.072;2024-03-02T00:36:08;8.50;99.90
33717;DHT22;20046;50.746;7.072;2024-03-02T00:38:34;8.50;99.90
33717;DHT22;20046;50.746;7.072;2024-03-02T00:41:06;8.50;99.90
33717;DHT22;20046;50.746;7.072;2024-03-02T00:46:07;8.40;99.90
33717;DHT22;20046;50.746;7.072;2024-03-02T00:48:33;8.40;99.90
33717;DHT22;20046;50.746;7.072;2024-03-02T00:51:02;8.40;99.90
33717;DHT22;20046;50.746;7.072;2024-03-02T00:53:31;8.30;99.90
33717;DHT22;20046;50.746;7.072;2024-03-02T00:55:58;8.30;99.90
33717;DHT22;20046;50.746;7.072;2024-03-02T00:58:25;8.30;99.90
33717;DHT22;20046;50.746;7.072;2024-03-02T01:00:50;8.30;99.90
33717;DHT22;20046;50.746;7.072;2024-03-02T01:03:16;8.20;99.90
33717;DHT22;20046;50.746;7.072;2024-03-02T01:05:45;8.20;99.90
33717;DHT22;20046;50.746;7.072;2024-03-02T01:08:11;8.20;99.90
33717;DHT22;20046;50.746;7.072;2024-03-02T01:10:36;8.20;99.90
33717;DHT22;20046;50.746;7.072;2024-03-02T01:13:02;8.20;99.90
33717;DHT22;20046;50.746;7.072;2024-03-02T01:15:28;8.20;99.90
33717;DHT22;20046;50.746;7.072;2024-03-02T01:17:53;8.20;99.90
33717;DHT22;20046;50.746;7.072;2024-03-02T01:20:19;8.20;99.90
33717;DHT22;20046;50.746;7.072;2024-03-02T01:22:45;8.20;99.90
33717;DHT22;20046;50.746;7.072;2024-03-02T01:25:10;8.20;99.90
33717;DHT22;20046;50.746;7.072;2024-03-02T01:27:36;8.20;99.90
33717;DHT22;20046;50.746;7.072;2024-03-02T01:30:02;8.20;99.90
33717;DHT22;20046;50.746;7.072;2024-03-02T01:32:27;8.20;99.90
33717;DHT22;20046;50.746;7.072;2024-03-02T01:34:53;8.20;99.90
33717;DHT22;20046;50.746;7.072;2024-03-02T01:37:18;8.20;99.90
33717;DHT22;20046;50.746;7.072;2024-03-02T01:39:44;8.30;99.90
33717;DHT22;20046;50.746;7.072;2024-03-02T01:42:09;8.30;99.90
33717;DHT22;20046;50.746;7.072;2024-03-02T01:44:36;8.30;99.90
33717;DHT22;20046;50.746;7.072;2024-03-02T01:47:02;8.30;99.90
33717;DHT22;20046;50.746;7.072;2024-03-02T01:49:27;8.30;99.90
33717;DHT22;20046;50.746;7.072;2024-03-02T01:51:53;8.30;99.90
33717;DHT22;20046;50.746;7.072;2024-03-02T01:54:19;8.30;99.90
33717;DHT22;20046;50.746;7.072;2024-03-02T01:56:44;8.30;99.90
33717;DHT22;20046;50.746;7.072;2024-03-02T01:59:10;8.30;99.90
33717;DHT22;20046;50.746;7.072;2024-03-02T02:01:38;8.30;99.90
33717;DHT22;20046;50.746;7.072;2024-03-02T02:04:03;8.30;99.90
33717;DHT22;20046;50.746;7.072;2024-03-02T02:06:29;8.30;99.90
33717;DHT22;20046;50.746;7.072;2024-03-02T02:08:55;8.30;99.90
33717;DHT22;20046;50.746;7.072;2024-03-02T02:11:20;8.30;99.90
33717;DHT22;20046;50.746;7.072;2024-03-02T02:13:46;8.30;99.90
33717;DHT22;20046;50.746;7.072;2024-03-02T02:16:11;8.20;99.90
33717;DHT22;20046;50.746;7.072;2024-03-02T02:18:37;8.20;99.90
33717;DHT22;20046;50.746;7.072;2024-03-02T02:21:03;8.20;99.90
33717;DHT22;20046;50.746;7.072;2024-03-02T02:23:29;8.20;99.90
33717;DHT22;20046;50.746;7.072;2024-03-02T02:25:54;8.20;99.90
33717;DHT22;20046;50.746;7.072;2024-03-02T02:28:20;8.10;99.90
33717;DHT22;20046;50.746;7.072;2024-03-02T02:30:45;8.10;99.90
33717;DHT22;20046;50.746;7.072;2024-03-02T02:33:11;8.00;99.90
33717;DHT22;20046;50.746;7.072;2024-03-02T02:35:37;8.00;99.90
33717;DHT22;20046;50.746;7.072;2024-03-02T02:38:03;8.00;99.90
33717;DHT22;20046;50.746;7.072;2024-03-02T02:40:29;8.00;99.90
33717;DHT22;20046;50.746;7.072;2024-03-02T02:42:56;8.00;99.90
33717;DHT22;20046;50.746;7.072;2024-03-02T02:45:22;7.90;99.90
33717;DHT22;20046;50.746;7.072;2024-03-02T02:47:49;7.90;99.90
33717;DHT22;20046;50.746;7.072;2024-03-02T02:50:14;7.90;99.90
33717;DHT22;20046;50.746;7.072;2024-03-02T02:52:41;7.90;99.90
33717;DHT22;20046;50.746;7.072;2024-03-02T02:55:11;7.90;99.90
33717;DHT22;20046;50.746;7.072;2024-03-02T02:57:39;7.90;99.90
33717;DHT22;20046;50.746;7.072;2024-03-02T03:02:37;7.90;99.90
33717;DHT22;20046;50.746;7.072;2024-03-02T03:05:03;7.90;99.90
33717;DHT22;20046;50.746;7.072;2024-03-02T03:07:29;7.90;99.90
33717;DHT22;20046;50.746;7.072;2024-03-02T03:09:54;7.90;99.90
33717;DHT22;20046;50.746;7.072;2024-03-02T03:12:20;8.00;99.90
33717;DHT22;20046;50.746;7.072;2024-03-02T03:14:45;8.00;99.90
33717;DHT22;20046;50.746;7.072;2024-03-02T03:17:11;8.00;99.90
33717;DHT22;20046;50.746;7.072;2024-03-02T03:19:38;8.00;99.90
33717;DHT22;20046;50.746;7.072;2024-03-02T03:22:04;8.00;99.90
33717;DHT22;20046;50.746;7.072;2024-03-02T03:24:29;7.90;99.90
33717;DHT22;20046;50.746;7.072;2024-03-02T03:26:55;7.90;99.90
33717;DHT22;20046;50.746;7.072;2024-03-02T03:29:20;7.80;99.90
33717;DHT22;20046;50.746;7.072;2024-03-02T03:31:46;7.80;99.90
33717;DHT22;20046;50.746;7.072;2024-03-02T03:34:11;7.90;99.90
33717;DHT22;20046;50.746;7.072;2024-03-02T03:36:41;7.80;99.90
33717;DHT22;20046;50.746;7.072;2024-03-02T03:39:07;7.90;99.90
33717;DHT22;20046;50.746;7.072;2024-03-02T03:41:32;7.90;99.90
33717;DHT22;20046;50.746;7.072;2024-03-02T03:43:58;7.90;99.90
33717;DHT22;20046;50.746;7.072;2024-03-02T03:46:23;7.90;99.90
33717;DHT22;20046;50.746;7.072;2024-03-02T03:48:49;8.00;99.90
33717;DHT22;20046;50.746;7.072;2024-03-02T03:51:15;8.00;99.90
33717;DHT22;20046;50.746;7.072;2024-03-02T03:53:40;8.00;99.90
33717;DHT22;20046;50.746;7.072;2024-03-02T03:56:06;8.00;99.90
33717;DHT22;20046;50.746;7.072;2024-03-02T03:58:31;7.90;99.90
33717;DHT22;20046;50.746;7.072;2024-03-02T04:00:57;7.90;99.90
33717;DHT22;20046;50.746;7.072;2024-03-02T04:03:22;7.90;99.90
33717;DHT22;20046;50.746;7.072;2024-03-02T04:05:48;7.80;99.90
33717;DHT22;20046;50.746;7.072;2024-03-02T04:08:14;7.70;99.90
33717;DHT22;20046;50.746;7.072;2024-03-02T04:10:39;7.60;99.90
33717;DHT22;20046;50.746;7.072;2024-03-02T04:13:05;7.60;99.90
33717;DHT22;20046;50.746;7.072;2024-03-02T04:15:31;7.60;99.90
33717;DHT22;20046;50.746;7.072;2024-03-02T04:17:56;7.50;99.90
33717;DHT22;20046;50.746;7.072;2024-03-02T04:20:22;7.50;99.90
33717;DHT22;20046;50.746;7.072;2024-03-02T04:22:48;7.40;99.90
33717;DHT22;20046;50.746;7.072;2024-03-02T04:25:13;7.30;99.90
33717;DHT22;20046;50.746;7.072;2024-03-02T04:27:39;7.30;99.90
33717;DHT22;20046;50.746;7.072;2024-03-02T04:30:05;7.20;99.90
33717;DHT22;20046;50.746;7.072;2024-03-02T04:32:31;7.10;99.90
33717;DHT22;20046;50.746;7.072;2024-03-02T04:34:57;7.10;99.90
33717;DHT22;20046;50.746;7.072;2024-03-02T04:37:22;7.10;99.90
33717;DHT22;20046;50.746;7.072;2024-03-02T04:39:48;7.10;99.90
33717;DHT22;20046;50.746;7.072;2024-03-02T04:42:14;7.10;99.90
33717;DHT22;20046;50.746;7.072;2024-03-02T04:44:39;7.10;99.90
33717;DHT22;20046;50.746;7.072;2024-03-02T04:47:05;7.10;99.90
33717;DHT22;20046;50.746;7.072;2024-03-02T04:49:30;7.00;99.90
33717;DHT22;20046;50.746;7.072;2024-03-02T04:51:56;7.00;99.90
33717;DHT22;20046;50.746;7.072;2024-03-02T04:54:25;7.00;99.90
33717;DHT22;20046;50.746;7.072;2024-03-02T04:56:50;7.10;99.90
33717;DHT22;20046;50.746;7.072;2024-03-02T04:59:17;7.00;99.90
33717;DHT22;20046;50.746;7.072;2024-03-02T05:01:43;7.00;99.90
33717;DHT22;20046;50.746;7.072;2024-03-02T05:04:09;7.10;99.90
33717;DHT22;20046;50.746;7.072;2024-03-02T05:06:38;7.10;99.90
33717;DHT22;20046;50.746;7.072;2024-03-02T05:09:04;7.10;99.90
33717;DHT22;20046;50.746;7.072;2024-03-02T05:11:30;7.10;99.90
33717;DHT22;20046;50.746;7.072;2024-03-02T05:14:07;7.10;99.90
33717;DHT22;20046;50.746;7.072;2024-03-02T05:16:34;7.20;99.90
33717;DHT22;20046;50.746;7.072;2024-03-02T05:19:00;7.20;99.90
33717;DHT22;20046;50.746;7.072;2024-03-02T05:21:25;7.10;99.90
33717;DHT22;20046;50.746;7.072;2024-03-02T05:23:51;7.10;99.90
33717;DHT22;20046;50.746;7.072;2024-03-02T05:26:17;6.90;99.90
33717;DHT22;20046;50.746;7.072;2024-03-02T05:28:42;6.80;99.90
33717;DHT22;20046;50.746;7.072;2024-03-02T05:31:11;6.80;99.90
33717;DHT22;20046;50.746;7.072;2024-03-02T05:33:40;6.80;99.90
33717;DHT22;20046;50.746;7.072;2024-03-02T05:36:05;6.80;99.90
33717;DHT22;20046;50.746;7.072;2024-03-02T05:38:32;6.80;99.90
33717;DHT22;20046;50.746;7.072;2024-03-02T05:40:57;6.70;99.90
33717;DHT22;20046;50.746;7.072;2024-03-02T05:43:23;6.70;99.90
33717;DHT22;20046;50.746;7.072;2024-03-02T05:45:49;6.70;99.90
33717;DHT22;20046;50.746;7.072;2024-03-02T05:48:15;6.70;99.90
33717;DHT22;20046;50.746;7.072;2024-03-02T05:50:40;6.60;99.90
33717;DHT22;20046;50.746;7.072;2024-03-02T05:53:06;6.60;99.90
33717;DHT22;20046;50.746;7.072;2024-03-02T05:55:31;6.60;99.90
33717;DHT22;20046;50.746;7.072;2024-03-02T05:57:57;6.60;99.90
33717;DHT22;20046;50.746;7.072;2024-03-02T06:00:32;6.70;99.90
33717;DHT22;20046;50.746;7.072;2024-03-02T06:02:57;6.60;99.90
33717;DHT22;20046;50.746;7.072;2024-03-02T06:05:23;6.60;99.90
33717;DHT22;20046;50.746;7.072;2024-03-02T06:07:50;6.60;99.90
33717;DHT22;20046;50.746;7.072;2024-03-02T06:10:15;6.60;99.90
33717;DHT22;20046;50.746;7.072;2024-03-02T06:12:41;6.70;99.90
33717;DHT22;20046;50.746;7.072;2024-03-02T06:15:07;6.80;99.90
33717;DHT22;20046;50.746;7.072;2024-03-02T06:17:34;6.80;99.90
33717;DHT22;20046;50.746;7.072;2024-03-02T06:20:00;6.80;99.90
33717;DHT22;20046;50.746;7.072;2024-03-02T06:22:25;6.90;99.90
33717;DHT22;20046;50.746;7.072;2024-03-02T06:24:51;6.90;99.90
33717;DHT22;20046;50.746;7.072;2024-03-02T06:27:17;7.00;99.90
33717;DHT22;20046;50.746;7.072;2024-03-02T06:29:42;7.00;99.90
33717;DHT22;20046;50.746;7.072;2024-03-02T06:32:08;7.00;99.90
33717;DHT22;20046;50.746;7.072;2024-03-02T06:34:33;7.00;99.90
33717;DHT22;20046;50.746;7.072;2024-03-02T06:36:59;7.00;99.90
33717;DHT22;20046;50.746;7.072;2024-03-02T06:39:24;7.00;99.90
33717;DHT22;20046;50.746;7.072;2024-03-02T06:41:51;7.00;99.90
33717;DHT22;20046;50.746;7.072;2024-03-02T06:44:17;7.00;99.90
33717;DHT22;20046;50.746;7.072;2024-03-02T06:46:42;7.10;99.90
33717;DHT22;20046;50.746;7.072;2024-03-02T06:49:08;7.10;99.90
33717;DHT22;20046;50.746;7.072;2024-03-02T06:51:35;7.20;99.90
33717;DHT22;20046;50.746;7.072;2024-03-02T06:54:01;7.30;99.90
33717;DHT22;20046;50.746;7.072;2024-03-02T06:56:26;7.40;99.90
33717;DHT22;20046;50.746;7.072;2024-03-02T06:58:52;7.40;99.90
33717;DHT22;20046;50.746;7.072;2024-03-02T07:01:17;7.50;99.90
33717;DHT22;20046;50.746;7.072;2024-03-02T07:03:43;7.50;99.90
33717;DHT22;20046;50.746;7.072;2024-03-02T07:06:09;7.60;99.90
33717;DHT22;20046;50.746;7.072;2024-03-02T07:08:35;7.80;99.90
33717;DHT22;20046;50.746;7.072;2024-03-02T07:11:00;8.20;99.90
33717;DHT22;20046;50.746;7.072;2024-03-02T07:13:26;8.70;99.90
33717;DHT22;20046;50.746;7.072;2024-03-02T07:15:52;9.10;99.90
33717;DHT22;20046;50.746;7.072;2024-03-02T07:18:20;9.10;99.90
33717;DHT22;20046;50.746;7.072;2024-03-02T07:20:46;9.20;99.90
33717;DHT22;20046;50.746;7.072;2024-03-02T07:23:11;9.50;99.90
33717;DHT22;20046;50.746;7.072;2024-03-02T07:25:37;9.60;99.90
33717;DHT22;20046;50.746;7.072;2024-03-02T07:28:03;9.90;99.90
33717;DHT22;20046;50.746;7.072;2024-03-02T07:30:29;10.20;99.90
33717;DHT22;20046;50.746;7.072;2024-03-02T07:32:55;10.50;99.90
33717;DHT22;20046;50.746;7.072;2024-03-02T07:35:20;11.00;99.90
33717;DHT22;20046;50.746;7.072;2024-03-02T07:37:47;11.30;99.90
33717;DHT22;20046;50.746;7.072;2024-03-02T07:40:13;11.40;99.90
33717;DHT22;20046;50.746;7.072;2024-03-02T07:42:40;11.90;99.90
33717;DHT22;20046;50.746;7.072;2024-03-02T07:45:06;11.80;99.90
33717;DHT22;20046;50.746;7.072;2024-03-02T07:47:35;11.90;99.90
33717;DHT22;20046;50.746;7.072;2024-03-02T07:50:01;11.60;99.90
33717;DHT22;20046;50.746;7.072;2024-03-02T07:52:26;11.50;99.90
33717;DHT22;20046;50.746;7.072;2024-03-02T07:54:52;11.60;99.90
33717;DHT22;20046;50.746;7.072;2024-03-02T07:57:18;11.70;99.90
33717;DHT22;20046;50.746;7.072;2024-03-02T07:59:43;11.60;99.90
33717;DHT22;20046;50.746;7.072;2024-03-02T08:02:09;11.80;99.90
33717;DHT22;20046;50.746;7.072;2024-03-02T08:04:35;12.10;99.90
33717;DHT22;20046;50.746;7.072;2024-03-02T08:07:02;12.20;99.90
33717;DHT22;20046;50.746;7.072;2024-03-02T08:09:28;12.30;99.90
33717;DHT22;20046;50.746;7.072;2024-03-02T08:11:54;11.90;99.90
33717;DHT22;20046;50.746;7.072;2024-03-02T08:14:19;11.80;99.90
33717;DHT22;20046;50.746;7.072;2024-03-02T08:16:45;11.80;99.90
33717;DHT22;20046;50.746;7.072;2024-03-02T08:19:12;11.80;99.90
33717;DHT22;20046;50.746;7.072;2024-03-02T08:21:37;12.20;99.90
33717;DHT22;20046;50.746;7.072;2024-03-02T08:24:03;13.00;99.90
33717;DHT22;20046;50.746;7.072;2024-03-02T08:26:29;13.40;99.90
33717;DHT22;20046;50.746;7.072;2024-03-02T08:28:57;13.10;99.90
33717;DHT22;20046;50.746;7.072;2024-03-02T08:31:23;13.00;99.90
33717;DHT22;20046;50.746;7.072;2024-03-02T08:33:48;13.20;99.90
33717;DHT22;20046;50.746;7.072;2024-03-02T08:36:14;13.80;99.90
33717;DHT22;20046;50.746;7.072;2024-03-02T08:38:40;14.20;99.90
33717;DHT22;20046;50.746;7.072;2024-03-02T08:41:06;14.50;99.90
33717;DHT22;20046;50.746;7.072;2024-03-02T08:43:32;14.50;99.90
33717;DHT22;20046;50.746;7.072;2024-03-02T08:45:58;14.40;99.90
33717;DHT22;20046;50.746;7.072;2024-03-02T08:48:23;14.20;99.90
33717;DHT22;20046;50.746;7.072;2024-03-02T08:50:49;13.80;99.90
33717;DHT22;20046;50.746;7.072;2024-03-02T08:53:14;13.60;99.90
33717;DHT22;20046;50.746;7.072;2024-03-02T08:55:45;13.80;99.90
33717;DHT22;20046;50.746;7.072;2024-03-02T08:58:11;14.00;99.90
33717;DHT22;20046;50.746;7.072;2024-03-02T09:00:36;14.40;99.90
33717;DHT22;20046;50.746;7.072;2024-03-02T09:03:02;14.40;99.90
33717;DHT22;20046;50.746;7.072;2024-03-02T09:05:28;14.10;99.90
33717;DHT22;20046;50.746;7.072;2024-03-02T09:07:54;14.70;99.90
33717;DHT22;20046;50.746;7.072;2024-03-02T09:10:19;15.00;99.90
33717;DHT22;20046;50.746;7.072;2024-03-02T09:12:45;14.80;99.90
33717;DHT22;20046;50.746;7.072;2024-03-02T09:15:10;14.60;99.90
33717;DHT22;20046;50.746;7.072;2024-03-02T09:17:36;14.30;99.90
33717;DHT22;20046;50.746;7.072;2024-03-02T09:20:02;14.60;99.90
33717;DHT22;20046;50.746;7.072;2024-03-02T09:22:29;14.20;99.90
33717;DHT22;20046;50.746;7.072;2024-03-02T09:24:55;14.50;99.90
33717;DHT22;20046;50.746;7.072;2024-03-02T09:27:21;14.90;99.90
33717;DHT22;20046;50.746;7.072;2024-03-02T09:29:47;15.30;99.90
33717;DHT22;20046;50.746;7.072;2024-03-02T09:32:13;15.10;99.90
33717;DHT22;20046;50.746;7.072;2024-03-02T09:34:40;15.40;99.90
33717;DHT22;20046;50.746;7.072;2024-03-02T09:37:06;15.40;99.90
33717;DHT22;20046;50.746;7.072;2024-03-02T09:39:32;15.70;99.90
33717;DHT22;20046;50.746;7.072;2024-03-02T09:41:58;15.60;99.90
33717;DHT22;20046;50.746;7.072;2024-03-02T09:44:25;15.80;99.90
33717;DHT22;20046;50.746;7.072;2024-03-02T09:46:51;16.60;99.80
33717;DHT22;20046;50.746;7.072;2024-03-02T09:49:17;16.50;99.20
33717;DHT22;20046;50.746;7.072;2024-03-02T09:51:47;16.00;99.20
33717;DHT22;20046;50.746;7.072;2024-03-02T09:54:12;15.50;99.90
33717;DHT22;20046;50.746;7.072;2024-03-02T09:56:39;15.40;99.80
33717;DHT22;20046;50.746;7.072;2024-03-02T09:59:04;15.60;99.90
33717;DHT22;20046;50.746;7.072;2024-03-02T10:01:30;15.70;99.90
33717;DHT22;20046;50.746;7.072;2024-03-02T10:03:59;16.10;99.50
33717;DHT22;20046;50.746;7.072;2024-03-02T10:06:26;16.40;99.30
33717;DHT22;20046;50.746;7.072;2024-03-02T10:08:53;16.40;98.90
33717;DHT22;20046;50.746;7.072;2024-03-02T10:11:33;16.70;98.90
33717;DHT22;20046;50.746;7.072;2024-03-02T10:14:12;16.90;98.70
33717;DHT22;20046;50.746;7.072;2024-03-02T10:16:41;17.10;98.00
33717;DHT22;20046;50.746;7.072;2024-03-02T10:19:25;17.70;97.50
33717;DHT22;20046;50.746;7.072;2024-03-02T10:21:53;18.20;96.70
33717;DHT22;20046;50.746;7.072;2024-03-02T10:24:20;19.40;96.40
33717;DHT22;20046;50.746;7.072;2024-03-02T10:26:47;19.00;94.90
33717;DHT22;20046;50.746;7.072;2024-03-02T10:29:13;19.20;94.80
33717;DHT22;20046;50.746;7.072;2024-03-02T10:31:43;18.40;94.50
33717;DHT22;20046;50.746;7.072;2024-03-02T10:34:10;18.70;95.20
33717;DHT22;20046;50.746;7.072;2024-03-02T10:36:36;19.30;94.70
33717;DHT22;20046;50.746;7.072;2024-03-02T10:39:03;18.80;94.20
33717;DHT22;20046;50.746;7.072;2024-03-02T10:41:35;17.20;95.20
33717;DHT22;20046;50.746;7.072;2024-03-02T10:44:08;17.50;96.20
33717;DHT22;20046;50.746;7.072;2024-03-02T10:46:36;17.50;95.70
33717;DHT22;20046;50.746;7.072;2024-03-02T10:49:04;17.40;95.50
33717;DHT22;20046;50.746;7.072;2024-03-02T10:51:32;17.50;95.60
33717;DHT22;20046;50.746;7.072;2024-03-02T10:53:58;17.00;95.90
33717;DHT22;20046;50.746;7.072;2024-03-02T10:56:47;16.80;96.30
33717;DHT22;20046;50.746;7.072;2024-03-02T11:01:50;16.00;97.00
33717;DHT22;20046;50.746;7.072;2024-03-02T11:04:18;16.50;97.00
33717;DHT22;20046;50.746;7.072;2024-03-02T11:06:51;16.90;96.60
33717;DHT22;20046;50.746;7.072;2024-03-02T11:09:22;16.90;96.70
33717;DHT22;20046;50.746;7.072;2024-03-02T11:12:09;17.60;96.30
33717;DHT22;20046;50.746;7.072;2024-03-02T11:14:40;16.90;96.00
33717;DHT22;20046;50.746;7.072;2024-03-02T11:17:08;16.10;96.90
33717;DHT22;20046;50.746;7.072;2024-03-02T11:19:35;16.20;97.70
33717;DHT22;20046;50.746;7.072;2024-03-02T11:22:03;17.00;96.90
33717;DHT22;20046;50.746;7.072;2024-03-02T11:24:30;16.70;96.90
33717;DHT22;20046;50.746;7.072;2024-03-02T11:26:59;16.30;97.10
33717;DHT22;20046;50.746;7.072;2024-03-02T11:34:45;15.20;98.80
33717;DHT22;20046;50.746;7.072;2024-03-02T11:37:15;15.60;98.50
33717;DHT22;20046;50.746;7.072;2024-03-02T11:39:45;15.70;98.20
33717;DHT22;20046;50.746;7.072;2024-03-02T11:42:12;16.30;97.60
33717;DHT22;20046;50.746;7.072;2024-03-02T11:44:42;17.00;97.10
33717;DHT22;20046;50.746;7.072;2024-03-02T11:47:10;17.20;97.00
33717;DHT22;20046;50.746;7.072;2024-03-02T11:52:08;18.70;95.20
33717;DHT22;20046;50.746;7.072;2024-03-02T11:54:36;18.30;95.10
33717;DHT22;20046;50.746;7.072;2024-03-02T11:57:03;18.00;95.40
33717;DHT22;20046;50.746;7.072;2024-03-02T11:59:29;16.70;96.00
33717;DHT22;20046;50.746;7.072;2024-03-02T12:01:58;16.20;96.70
33717;DHT22;20046;50.746;7.072;2024-03-02T12:04:24;15.00;98.00
33717;DHT22;20046;50.746;7.072;2024-03-02T12:07:00;14.50;99.10
33717;DHT22;20046;50.746;7.072;2024-03-02T12:09:28;14.30;99.40
33717;DHT22;20046;50.746;7.072;2024-03-02T12:14:30;15.40;98.90
33717;DHT22;20046;50.746;7.072;2024-03-02T12:16:55;15.90;98.60
33717;DHT22;20046;50.746;7.072;2024-03-02T12:19:21;16.80;97.50
33717;DHT22;20046;50.746;7.072;2024-03-02T12:21:47;18.20;96.60
33717;DHT22;20046;50.746;7.072;2024-03-02T12:24:12;19.50;95.20
33717;DHT22;20046;50.746;7.072;2024-03-02T12:26:38;19.70;94.10
33717;DHT22;20046;50.746;7.072;2024-03-02T12:29:04;18.00;95.00
33717;DHT22;20046;50.746;7.072;2024-03-02T12:31:30;18.00;95.70
33717;DHT22;20046;50.746;7.072;2024-03-02T12:33:55;18.60;95.10
33717;DHT22;20046;50.746;7.072;2024-03-02T12:36:22;19.00;94.30
33717;DHT22;20046;50.746;7.072;2024-03-02T12:38:47;19.20;94.10
33717;DHT22;20046;50.746;7.072;2024-03-02T12:41:16;19.60;94.00
33717;DHT22;20046;50.746;7.072;2024-03-02T12:43:42;18.50;94.30
33717;DHT22;20046;50.746;7.072;2024-03-02T12:46:08;17.90;94.70
33717;DHT22;20046;50.746;7.072;2024-03-02T12:48:34;18.20;94.90
33717;DHT22;20046;50.746;7.072;2024-03-02T12:51:00;18.30;94.60
33717;DHT22;20046;50.746;7.072;2024-03-02T12:53:26;18.80;94.00
33717;DHT22;20046;50.746;7.072;2024-03-02T12:55:52;18.00;94.50
33717;DHT22;20046;50.746;7.072;2024-03-02T12:58:19;17.80;95.10
33717;DHT22;20046;50.746;7.072;2024-03-02T13:00:46;17.70;95.30
33717;DHT22;20046;50.746;7.072;2024-03-02T13:03:12;17.70;95.10
33717;DHT22;20046;50.746;7.072;2024-03-02T13:05:39;17.90;95.30
33717;DHT22;20046;50.746;7.072;2024-03-02T13:08:06;17.70;95.40
33717;DHT22;20046;50.746;7.072;2024-03-02T13:10:32;17.10;95.60
33717;DHT22;20046;50.746;7.072;2024-03-02T13:12:58;16.80;96.30
33717;DHT22;20046;50.746;7.072;2024-03-02T13:15:26;16.20;96.40
33717;DHT22;20046;50.746;7.072;2024-03-02T13:17:51;16.50;96.90
33717;DHT22;20046;50.746;7.072;2024-03-02T13:20:17;16.50;96.60
33717;DHT22;20046;50.746;7.072;2024-03-02T13:22:44;16.20;96.70
33717;DHT22;20046;50.746;7.072;2024-03-02T13:25:09;16.30;96.90
33717;DHT22;20046;50.746;7.072;2024-03-02T13:27:38;15.80;97.00
33717;DHT22;20046;50.746;7.072;2024-03-02T13:30:04;16.00;97.20
33717;DHT22;20046;50.746;7.072;2024-03-02T13:32:31;16.20;97.20
33717;DHT22;20046;50.746;7.072;2024-03-02T13:34:57;15.90;97.20
33717;DHT22;20046;50.746;7.072;2024-03-02T13:37:22;16.00;97.30
33717;DHT22;20046;50.746;7.072;2024-03-02T13:39:48;16.60;96.90
33717;DHT22;20046;50.746;7.072;2024-03-02T13:42:14;16.80;96.30
33717;DHT22;20046;50.746;7.072;2024-03-02T13:44:42;17.40;95.90
33717;DHT22;20046;50.746;7.072;2024-03-02T13:47:09;17.00;95.80
33717;DHT22;20046;50.746;7.072;2024-03-02T13:49:35;16.70;96.40
33717;DHT22;20046;50.746;7.072;2024-03-02T13:52:05;16.80;96.10
33717;DHT22;20046;50.746;7.072;2024-03-02T13:54:40;17.00;96.10
33717;DHT22;20046;50.746;7.072;2024-03-02T13:57:08;18.30;94.90
33717;DHT22;20046;50.746;7.072;2024-03-02T13:59:35;18.30;94.10
33717;DHT22;20046;50.746;7.072;2024-03-02T14:02:01;18.10;94.40
33717;DHT22;20046;50.746;7.072;2024-03-02T14:04:32;17.80;94.50
33717;DHT22;20046;50.746;7.072;2024-03-02T14:06:59;18.70;93.90
33717;DHT22;20046;50.746;7.072;2024-03-02T14:09:25;18.10;94.00
33717;DHT22;20046;50.746;7.072;2024-03-02T14:11:50;17.40;94.70
33717;DHT22;20046;50.746;7.072;2024-03-02T14:14:17;16.40;95.30
33717;DHT22;20046;50.746;7.072;2024-03-02T14:16:43;15.50;96.00
33717;DHT22;20046;50.746;7.072;2024-03-02T14:19:09;15.20;96.30
33717;DHT22;20046;50.746;7.072;2024-03-02T14:21:35;14.70;96.80
33717;DHT22;20046;50.746;7.072;2024-03-02T14:24:01;14.70;96.90
33717;DHT22;20046;50.746;7.072;2024-03-02T14:26:27;14.70;97.00
33717;DHT22;20046;50.746;7.072;2024-03-02T14:28:54;14.60;97.10
33717;DHT22;20046;50.746;7.072;2024-03-02T14:31:20;14.50;97.20
33717;DHT22;20046;50.746;7.072;2024-03-02T14:33:46;14.50;97.50
33717;DHT22;20046;50.746;7.072;2024-03-02T14:36:12;14.40;97.80
33717;DHT22;20046;50.746;7.072;2024-03-02T14:38:38;14.30;97.80
33717;DHT22;20046;50.746;7.072;2024-03-02T14:41:04;14.10;98.10
33717;DHT22;20046;50.746;7.072;2024-03-02T14:43:29;14.10;98.20
33717;DHT22;20046;50.746;7.072;2024-03-02T14:45:56;14.00;98.30
33717;DHT22;20046;50.746;7.072;2024-03-02T14:48:22;14.00;98.30
33717;DHT22;20046;50.746;7.072;2024-03-02T14:50:48;14.00;98.30
33717;DHT22;20046;50.746;7.072;2024-03-02T14:53:14;13.90;98.30
33717;DHT22;20046;50.746;7.072;2024-03-02T14:55:39;13.90;98.40
33717;DHT22;20046;50.746;7.072;2024-03-02T14:58:05;13.90;98.40
33717;DHT22;20046;50.746;7.072;2024-03-02T15:00:30;14.00;98.40
33717;DHT22;20046;50.746;7.072;2024-03-02T15:02:56;13.90;98.40
33717;DHT22;20046;50.746;7.072;2024-03-02T15:05:22;13.90;98.60
33717;DHT22;20046;50.746;7.072;2024-03-02T15:07:47;14.00;98.60
33717;DHT22;20046;50.746;7.072;2024-03-02T15:10:13;14.10;98.50
33717;DHT22;20046;50.746;7.072;2024-03-02T15:12:39;14.20;98.40
33717;DHT22;20046;50.746;7.072;2024-03-02T15:15:04;14.20;98.40
33717;DHT22;20046;50.746;7.072;2024-03-02T15:17:30;14.40;98.20
33717;DHT22;20046;50.746;7.072;2024-03-02T15:19:56;14.40;98.10
33717;DHT22;20046;50.746;7.072;2024-03-02T15:22:21;14.40;97.80
33717;DHT22;20046;50.746;7.072;2024-03-02T15:24:47;14.40;98.00
33717;DHT22;20046;50.746;7.072;2024-03-02T15:27:12;14.40;98.10
33717;DHT22;20046;50.746;7.072;2024-03-02T15:29:38;14.40;98.10
33717;DHT22;20046;50.746;7.072;2024-03-02T15:32:05;14.30;98.10
33717;DHT22;20046;50.746;7.072;2024-03-02T15:34:32;14.30;98.10
33717;DHT22;20046;50.746;7.072;2024-03-02T15:36:57;14.20;98.10
33717;DHT22;20046;50.746;7.072;2024-03-02T15:39:23;14.10;98.20
33717;DHT22;20046;50.746;7.072;2024-03-02T15:41:49;14.10;98.60
33717;DHT22;20046;50.746;7.072;2024-03-02T15:44:15;14.10;98.50
33717;DHT22;20046;50.746;7.072;2024-03-02T15:46:41;14.10;98.50
33717;DHT22;20046;50.746;7.072;2024-03-02T15:49:08;14.10;98.40
33717;DHT22;20046;50.746;7.072;2024-03-02T15:51:34;14.10;98.60